createdAt,value
2019-05-06T00:00:27.105Z,76.82
2019-05-06T00:01:27.509Z,76.63
2019-05-06T00:02:27.915Z,77.11
2019-05-06T00:03:28.327Z,77.49
2019-05-06T00:04:28.764Z,77.64
2019-05-06T00:05:29.178Z,77.58
2019-05-06T00:06:29.601Z,77.87
2019-05-06T00:07:30.039Z,78.50
2019-05-06T00:08:30.462Z,78.50
2019-05-06T00:09:30.885Z,79.25
2019-05-06T00:10:31.304Z,78.88
2019-05-06T00:11:31.731Z,78.91
2019-05-06T00:12:33.514Z,79.20
2019-05-06T00:13:34.376Z,79.73
2019-05-06T00:14:33.953Z,79.44
2019-05-06T00:15:34.363Z,79.73
2019-05-06T00:16:34.668Z,80.30
2019-05-06T00:17:34.898Z,80.49
2019-05-06T00:18:34.704Z,80.40
2019-05-06T00:19:35.132Z,81.44
2019-05-06T00:20:35.557Z,81.16
2019-05-06T00:21:35.986Z,81.16
2019-05-06T00:22:36.409Z,82.10
2019-05-06T00:23:38.231Z,82.29
2019-05-06T00:24:37.248Z,82.77
2019-05-06T00:25:37.672Z,83.06
2019-05-06T00:26:38.103Z,83.15
2019-05-06T00:27:38.534Z,83.06
2019-05-06T00:28:38.949Z,83.72
2019-05-06T00:29:39.378Z,83.44
2019-05-06T00:30:39.804Z,83.62
2019-05-06T00:31:40.224Z,83.62
2019-05-06T00:32:40.671Z,83.91
2019-05-06T00:33:41.110Z,84.10
2019-05-06T00:34:43.598Z,84.39
2019-05-06T00:37:15.047Z,84.48
2019-05-06T00:39:48.569Z,84.95
2019-05-06T00:40:48.976Z,84.86
2019-05-06T00:42:44.562Z,85.05
2019-05-06T00:43:43.995Z,84.67
2019-05-06T00:47:28.333Z,86.00
2019-05-06T00:48:28.781Z,86.38
2019-05-06T00:50:23.983Z,86.47
2019-05-06T00:51:24.161Z,86.67
2019-05-06T00:53:18.292Z,86.29
2019-05-06T00:54:18.713Z,86.57
2019-05-06T00:56:14.237Z,87.05
2019-05-06T00:57:14.664Z,87.34
2019-05-06T00:59:09.220Z,86.19
2019-05-06T01:00:09.630Z,86.76
2019-05-06T01:02:04.711Z,86.86
2019-05-06T01:03:04.587Z,87.28
2019-05-06T01:04:59.141Z,86.52
2019-05-06T01:05:59.551Z,86.14
2019-05-06T01:07:54.933Z,85.66
2019-05-06T01:08:54.577Z,85.19
2019-05-06T01:10:49.097Z,84.72
2019-05-06T01:11:49.496Z,84.81
2019-05-06T01:13:44.063Z,84.33
2019-05-06T01:14:44.463Z,84.33
2019-05-06T01:16:39.009Z,83.95
2019-05-06T01:17:39.437Z,83.67
2019-05-06T01:19:34.267Z,83.58
2019-05-06T01:20:34.426Z,84.14
2019-05-06T01:22:28.938Z,83.58
2019-05-06T01:23:29.363Z,83.39
2019-05-06T01:25:23.924Z,83.29
2019-05-06T01:26:24.437Z,83.95
2019-05-06T01:28:18.890Z,83.29
2019-05-06T01:29:19.314Z,83.10
2019-05-06T01:31:14.853Z,83.39
2019-05-06T01:32:15.270Z,83.48
2019-05-06T01:34:09.822Z,83.58
2019-05-06T01:35:10.239Z,83.76
2019-05-06T01:37:04.790Z,83.67
2019-05-06T01:38:05.210Z,83.95
2019-05-06T01:39:59.765Z,84.14
2019-05-06T01:41:00.181Z,84.05
2019-05-06T01:42:54.723Z,84.52
2019-05-06T01:43:55.158Z,84.72
2019-05-06T01:45:49.705Z,84.72
2019-05-06T01:46:50.131Z,84.91
2019-05-06T01:48:45.661Z,85.57
2019-05-06T01:49:46.091Z,85.76
2019-05-06T01:51:40.630Z,86.33
2019-05-06T01:52:41.048Z,85.86
2019-05-06T01:54:35.603Z,86.05
2019-05-06T01:55:36.025Z,86.24
2019-05-06T01:57:30.590Z,86.52
2019-05-06T01:58:31.010Z,86.67
2019-05-06T02:00:26.555Z,86.80
2019-05-06T02:01:26.958Z,86.43
2019-05-06T02:03:21.510Z,86.52
2019-05-06T02:04:21.941Z,86.52
2019-05-06T02:06:17.472Z,87.52
2019-05-06T02:07:17.887Z,87.81
2019-05-06T02:09:13.740Z,87.90
2019-05-06T02:10:14.224Z,87.81
2019-05-06T02:12:07.894Z,88.00
2019-05-06T02:13:08.316Z,88.09
2019-05-06T02:15:04.018Z,89.14
2019-05-06T02:16:03.980Z,89.23
2019-05-06T02:17:57.812Z,89.33
2019-05-06T02:18:58.235Z,89.52
2019-05-06T02:20:53.886Z,89.80
2019-05-06T02:21:54.421Z,90.66
2019-05-06T02:23:48.734Z,90.09
2019-05-06T02:24:49.165Z,90.37
2019-05-06T02:26:43.839Z,90.94
2019-05-06T02:27:44.533Z,90.94
2019-05-06T02:29:38.686Z,91.52
2019-05-06T02:30:39.104Z,91.94
2019-05-06T02:32:35.958Z,91.99
2019-05-06T02:33:35.557Z,92.23
2019-05-06T02:34:36.396Z,92.80
2019-05-06T02:35:35.055Z,92.80
2019-05-06T02:36:35.341Z,92.99
2019-05-06T02:37:35.761Z,92.99
2019-05-06T02:38:46.573Z,93.18
2019-05-06T02:39:36.610Z,93.46
2019-05-06T02:40:37.032Z,93.37
2019-05-06T02:41:37.460Z,94.23
2019-05-06T02:42:37.885Z,93.84
2019-05-06T02:43:38.317Z,94.23
2019-05-06T02:44:38.730Z,94.32
2019-05-06T02:45:39.154Z,94.89
2019-05-06T02:46:39.578Z,94.79
2019-05-06T02:47:42.762Z,95.46
2019-05-06T02:48:43.200Z,95.65
2019-05-06T02:49:44.122Z,95.46
2019-05-06T02:50:42.713Z,95.55
2019-05-06T02:51:44.225Z,95.84
2019-05-06T02:52:44.068Z,96.41
2019-05-06T02:53:43.050Z,96.50
2019-05-06T02:54:42.982Z,96.31
2019-05-06T02:55:43.395Z,95.65
2019-05-06T02:56:43.827Z,96.60
2019-05-06T02:57:44.287Z,96.12
2019-05-06T02:58:44.665Z,96.41
2019-05-06T02:59:45.093Z,97.07
2019-05-06T03:00:45.517Z,97.45
2019-05-06T03:01:45.940Z,97.27
2019-05-06T03:02:48.150Z,97.27
2019-05-06T03:03:46.787Z,97.27
2019-05-06T03:04:47.211Z,98.02
2019-05-06T03:05:47.634Z,97.97
2019-05-06T03:06:48.063Z,97.92
2019-05-06T03:07:48.482Z,98.21
2019-05-06T03:08:48.922Z,97.74
2019-05-06T03:09:49.343Z,98.16
2019-05-06T03:10:49.764Z,98.26
2019-05-06T03:11:53.620Z,98.35
2019-05-06T03:12:53.481Z,98.83
2019-05-06T03:13:53.482Z,98.83
2019-05-06T03:14:53.267Z,98.92
2019-05-06T03:15:54.095Z,99.02
2019-05-06T03:16:53.815Z,99.49
2019-05-06T03:17:55.360Z,99.11
2019-05-06T03:18:53.628Z,99.30
2019-05-06T03:19:53.575Z,99.30
2019-05-06T03:20:53.987Z,99.49
2019-05-06T03:21:54.896Z,98.83
2019-05-06T03:22:54.837Z,98.83
2019-05-06T03:23:55.263Z,99.58
2019-05-06T03:24:55.682Z,99.77
2019-05-06T03:25:56.105Z,98.92
2019-05-06T03:26:57.225Z,99.11
2019-05-06T03:27:56.955Z,99.30
2019-05-06T03:28:57.379Z,99.02
2019-05-06T03:29:57.806Z,99.02
2019-05-06T03:30:58.223Z,99.30
2019-05-06T03:31:58.647Z,99.30
2019-05-06T03:33:30.274Z,98.92
2019-05-06T03:34:22.125Z,99.40
2019-05-06T03:35:19.343Z,99.02
2019-05-06T03:36:09.477Z,99.30
2019-05-06T03:37:06.526Z,99.49
2019-05-06T03:38:03.890Z,99.40
2019-05-06T03:39:03.061Z,99.21
2019-05-06T03:40:03.015Z,99.11
2019-05-06T03:41:03.137Z,98.83
2019-05-06T03:42:04.532Z,99.02
2019-05-06T03:43:03.302Z,98.64
2019-05-06T03:44:03.723Z,97.97
2019-05-06T03:45:04.552Z,98.11
2019-05-06T03:46:04.767Z,98.26
2019-05-06T03:47:05.677Z,97.88
2019-05-06T03:48:06.128Z,98.54
2019-05-06T03:49:05.842Z,98.07
2019-05-06T03:50:06.265Z,98.16
2019-05-06T03:51:06.713Z,97.83
2019-05-06T03:52:07.117Z,97.74
2019-05-06T03:53:07.533Z,97.36
2019-05-06T03:54:07.973Z,96.88
2019-05-06T03:55:08.378Z,96.31
2019-05-06T03:56:08.800Z,96.59
2019-05-06T03:57:09.226Z,96.78
2019-05-06T03:58:09.648Z,96.59
2019-05-06T03:59:10.077Z,96.50
2019-05-06T04:00:13.030Z,96.59
2019-05-06T04:01:13.159Z,96.22
2019-05-06T04:02:13.255Z,96.12
2019-05-06T04:03:14.078Z,96.22
2019-05-06T04:04:12.684Z,95.84
2019-05-06T04:05:13.476Z,96.31
2019-05-06T04:06:13.836Z,95.74
2019-05-06T04:07:14.056Z,95.84
2019-05-06T04:08:13.879Z,95.36
2019-05-06T04:09:14.301Z,95.36
2019-05-06T04:10:14.729Z,95.07
2019-05-06T04:11:15.146Z,95.27
2019-05-06T04:12:15.583Z,95.27
2019-05-06T04:13:15.999Z,95.36
2019-05-06T04:14:16.421Z,94.79
2019-05-06T04:15:16.843Z,94.70
2019-05-06T04:16:17.264Z,94.98
2019-05-06T04:17:17.688Z,94.79
2019-05-06T04:18:18.110Z,94.79
2019-05-06T04:19:18.535Z,94.98
2019-05-06T04:20:18.958Z,94.79
2019-05-06T04:21:19.381Z,95.27
2019-05-06T04:22:19.802Z,94.79
2019-05-06T04:23:23.192Z,94.23
2019-05-06T04:24:22.912Z,95.17
2019-05-06T04:25:23.339Z,94.89
2019-05-06T04:26:23.944Z,94.51
2019-05-06T04:27:22.843Z,94.98
2019-05-06T04:28:23.851Z,94.70
2019-05-06T04:29:24.097Z,95.51
2019-05-06T04:30:24.320Z,95.31
2019-05-06T04:31:23.610Z,95.41
2019-05-06T04:32:24.034Z,95.22
2019-05-06T04:33:24.467Z,95.22
2019-05-06T04:34:24.881Z,95.60
2019-05-06T04:35:25.301Z,95.89
2019-05-06T04:36:25.725Z,95.98
2019-05-06T04:37:26.150Z,95.41
2019-05-06T04:38:26.573Z,95.51
2019-05-06T04:39:27.000Z,95.60
2019-05-06T04:40:27.425Z,95.41
2019-05-06T04:41:27.839Z,94.65
2019-05-06T04:42:28.275Z,94.74
2019-05-06T04:43:28.687Z,94.46
2019-05-06T04:44:29.122Z,94.27
2019-05-06T04:45:29.544Z,94.18
2019-05-06T04:46:29.961Z,94.18
2019-05-06T04:47:32.765Z,94.93
2019-05-06T04:48:32.976Z,94.18
2019-05-06T04:49:33.083Z,93.60
2019-05-06T04:50:33.107Z,93.80
2019-05-06T04:51:33.377Z,94.37
2019-05-06T04:52:34.313Z,93.89
2019-05-06T04:53:33.853Z,94.08
2019-05-06T04:54:33.722Z,93.70
2019-05-06T04:55:33.827Z,93.89
2019-05-06T04:56:34.202Z,94.93
2019-05-06T04:57:34.621Z,93.99
2019-05-06T04:58:35.048Z,94.56
2019-05-06T04:59:35.466Z,94.74
2019-05-06T05:00:35.894Z,94.56
2019-05-06T05:01:36.318Z,94.74
2019-05-06T05:02:36.741Z,94.93
2019-05-06T05:03:37.163Z,94.56
2019-05-06T05:04:37.585Z,94.65
2019-05-06T05:05:38.015Z,94.56
2019-05-06T05:06:38.435Z,94.93
2019-05-06T05:07:38.850Z,95.12
2019-05-06T05:08:39.285Z,95.46
2019-05-06T05:09:39.700Z,94.74
2019-05-06T05:10:40.126Z,94.56
2019-05-06T05:11:42.532Z,94.84
2019-05-06T05:12:42.682Z,94.84
2019-05-06T05:13:43.356Z,95.22
2019-05-06T05:14:42.311Z,95.79
2019-05-06T05:15:42.248Z,96.22
2019-05-06T05:16:42.668Z,96.22
2019-05-06T05:17:43.093Z,96.03
2019-05-06T05:18:43.530Z,96.50
2019-05-06T05:19:43.947Z,96.69
2019-05-06T05:20:46.782Z,96.88
2019-05-06T05:21:44.786Z,96.22
2019-05-06T05:22:45.210Z,96.79
2019-05-06T05:23:45.642Z,96.50
2019-05-06T05:24:46.057Z,96.41
2019-05-06T05:25:46.521Z,96.60
2019-05-06T05:26:47.209Z,96.45
2019-05-06T05:27:47.331Z,96.03
2019-05-06T05:28:47.762Z,96.22
2019-05-06T05:29:48.179Z,96.03
2019-05-06T05:30:48.602Z,96.03
2019-05-06T05:31:49.036Z,96.31
2019-05-06T05:32:49.452Z,96.41
2019-05-06T05:33:49.887Z,96.79
2019-05-06T05:34:52.113Z,97.07
2019-05-06T05:35:52.589Z,96.79
2019-05-06T05:36:52.053Z,96.79
2019-05-06T05:37:52.920Z,96.88
2019-05-06T05:38:52.342Z,97.45
2019-05-06T05:39:52.425Z,97.83
2019-05-06T05:40:52.846Z,97.83
2019-05-06T05:41:53.275Z,98.17
2019-05-06T05:42:53.690Z,97.27
2019-05-06T05:43:54.121Z,97.55
2019-05-06T05:44:54.549Z,98.12
2019-05-06T05:45:54.966Z,97.17
2019-05-06T05:46:55.396Z,97.55
2019-05-06T05:47:55.821Z,97.74
2019-05-06T05:48:56.243Z,97.64
2019-05-06T05:49:56.665Z,97.55
2019-05-06T05:50:57.099Z,97.83
2019-05-06T05:51:57.552Z,98.50
2019-05-06T05:52:57.938Z,98.12
2019-05-06T05:53:58.364Z,98.26
2019-05-06T05:54:58.789Z,98.93
2019-05-06T05:55:59.210Z,98.45
2019-05-06T05:56:59.641Z,98.74
2019-05-06T05:58:00.071Z,98.83
2019-05-06T05:59:03.011Z,98.45
2019-05-06T06:00:00.915Z,98.69
2019-05-06T06:01:03.947Z,98.69
2019-05-06T06:02:03.756Z,98.64
2019-05-06T06:03:02.902Z,98.55
2019-05-06T06:04:03.017Z,99.11
2019-05-06T06:05:03.037Z,98.74
2019-05-06T06:06:03.458Z,99.30
2019-05-06T06:07:03.883Z,99.11
2019-05-06T06:08:04.310Z,99.30
2019-05-06T06:09:04.736Z,99.40
2019-05-06T06:10:05.156Z,99.88
2019-05-06T06:11:05.586Z,99.69
2019-05-06T06:12:06.009Z,99.40
2019-05-06T06:13:06.429Z,99.88
2019-05-06T06:14:06.865Z,99.50
2019-05-06T06:15:07.281Z,99.78
2019-05-06T06:16:07.708Z,99.78
2019-05-06T06:17:08.140Z,99.40
2019-05-06T06:18:08.559Z,99.88
2019-05-06T06:19:08.984Z,99.11
2019-05-06T06:20:09.411Z,99.88
2019-05-06T06:21:19.233Z,99.02
2019-05-06T06:22:11.822Z,99.99
2019-05-06T06:23:10.682Z,99.99
2019-05-06T06:24:12.999Z,99.84
2019-05-06T06:25:14.198Z,99.99
2019-05-06T06:26:12.215Z,99.74
2019-05-06T06:27:12.582Z,99.64
2019-05-06T06:28:12.818Z,99.99
2019-05-06T06:29:13.241Z,99.74
2019-05-06T06:30:13.675Z,99.99
2019-05-06T06:31:14.091Z,99.99
2019-05-06T06:32:14.514Z,99.50
2019-05-06T06:33:14.943Z,98.36
2019-05-06T06:34:15.369Z,98.41
2019-05-06T06:35:18.710Z,97.84
2019-05-06T06:36:16.219Z,97.31
2019-05-06T06:37:16.646Z,96.36
2019-05-06T06:38:17.080Z,94.37
2019-05-06T06:39:17.501Z,92.03
2019-05-06T06:40:17.929Z,87.97
2019-05-06T06:41:18.356Z,83.05
2019-05-06T06:42:18.787Z,79.52
2019-05-06T06:43:19.218Z,82.68
2019-05-06T06:44:19.645Z,82.76
2019-05-06T06:45:20.134Z,79.33
2019-05-06T06:46:22.376Z,77.51
2019-05-06T06:47:22.505Z,75.60
2019-05-06T06:48:22.911Z,78.96
2019-05-06T06:49:22.369Z,79.28
2019-05-06T06:50:22.235Z,79.48
2019-05-06T06:51:23.466Z,77.72
2019-05-06T06:52:23.351Z,79.23
2019-05-06T06:53:23.535Z,75.68
2019-05-06T06:54:23.979Z,71.92
2019-05-06T06:55:24.413Z,71.44
2019-05-06T06:56:24.846Z,71.98
2019-05-06T06:57:25.293Z,74.96
2019-05-06T06:58:25.724Z,77.15
2019-05-06T06:59:26.168Z,77.06
2019-05-06T07:00:26.601Z,80.39
2019-05-06T07:01:27.031Z,78.75
2019-05-06T07:02:27.599Z,74.61
2019-05-06T07:03:27.912Z,75.53
2019-05-06T07:04:28.350Z,77.00
2019-05-06T07:05:28.829Z,74.61
2019-05-06T07:06:29.225Z,75.18
2019-05-06T07:07:41.363Z,75.95
2019-05-06T07:08:34.888Z,74.80
2019-05-06T07:09:32.284Z,73.66
2019-05-06T07:10:32.424Z,76.03
2019-05-06T07:11:33.142Z,80.02
2019-05-06T07:12:32.791Z,81.55
2019-05-06T07:13:32.795Z,80.31
2019-05-06T07:14:35.974Z,80.79
2019-05-06T07:15:33.753Z,82.27
2019-05-06T07:16:33.643Z,82.75
2019-05-06T07:17:34.039Z,84.36
2019-05-06T07:18:34.474Z,84.50
2019-05-06T07:19:34.910Z,80.26
2019-05-06T07:20:35.340Z,79.46
2019-05-06T07:21:36.212Z,81.30
2019-05-06T07:22:36.219Z,78.10
2019-05-06T07:23:36.653Z,77.19
2019-05-06T07:24:37.093Z,75.37
2019-05-06T07:25:37.520Z,72.89
2019-05-06T07:26:37.952Z,73.87
2019-05-06T07:27:38.390Z,77.11
2019-05-06T07:28:38.821Z,77.69
2019-05-06T07:29:39.255Z,76.31
2019-05-06T07:30:41.576Z,76.92
2019-05-06T07:31:42.504Z,74.61
2019-05-06T07:32:42.368Z,72.51
2019-05-06T07:33:42.950Z,70.45
2019-05-06T07:34:42.022Z,68.29
2019-05-06T07:35:43.918Z,68.54
2019-05-06T07:36:43.120Z,69.49
2019-05-06T07:37:42.765Z,68.67
2019-05-06T07:38:43.200Z,69.37
2019-05-06T07:39:43.644Z,69.43
2019-05-06T07:40:44.077Z,67.62
2019-05-06T07:41:46.091Z,66.99
2019-05-06T07:42:44.956Z,66.38
2019-05-06T07:43:45.412Z,66.00
2019-05-06T07:44:45.842Z,65.42
2019-05-06T07:45:46.277Z,65.33
2019-05-06T07:46:46.717Z,65.36
2019-05-06T07:47:47.148Z,63.86
2019-05-06T07:48:47.611Z,65.45
2019-05-06T07:49:48.040Z,66.92
2019-05-06T07:50:49.290Z,65.77
2019-05-06T07:51:48.909Z,65.23
2019-05-06T07:52:49.350Z,64.88
2019-05-06T07:53:52.340Z,62.52
2019-05-06T07:54:50.232Z,60.64
2019-05-06T07:55:52.483Z,59.40
2019-05-06T07:56:52.638Z,57.32
2019-05-06T07:57:52.519Z,57.23
2019-05-06T07:58:52.874Z,56.77
2019-05-06T07:59:52.679Z,55.97
2019-05-06T08:00:52.888Z,54.44
2019-05-06T08:01:54.032Z,52.33
2019-05-06T08:02:53.775Z,51.85
2019-05-06T08:03:54.219Z,50.60
2019-05-06T08:04:54.666Z,52.20
2019-05-06T08:05:58.683Z,54.88
2019-05-06T08:06:55.560Z,58.38
2019-05-06T08:07:56.000Z,57.23
2019-05-06T08:08:56.480Z,54.64
2019-05-06T08:09:56.894Z,55.47
2019-05-06T08:10:57.334Z,56.69
2019-05-06T08:11:57.779Z,55.31
2019-05-06T08:12:58.224Z,53.97
2019-05-06T08:13:58.672Z,54.47
2019-05-06T08:14:59.148Z,56.50
2019-05-06T08:15:59.591Z,55.41
2019-05-06T08:17:02.089Z,51.56
2019-05-06T08:18:00.474Z,49.19
2019-05-06T08:19:02.783Z,49.00
2019-05-06T08:20:02.567Z,48.40
2019-05-06T08:21:02.465Z,52.01
2019-05-06T08:22:02.811Z,56.92
2019-05-06T08:23:02.692Z,58.36
2019-05-06T08:24:03.139Z,58.86
2019-05-06T08:25:03.659Z,59.53
2019-05-06T08:26:11.940Z,61.10
2019-05-06T08:27:04.467Z,60.36
2019-05-06T08:28:04.909Z,58.95
2019-05-06T08:29:05.354Z,57.71
2019-05-06T08:30:05.792Z,55.82
2019-05-06T08:31:06.239Z,51.32
2019-05-06T08:32:06.680Z,50.72
2019-05-06T08:33:07.120Z,50.43
2019-05-06T08:34:07.574Z,50.43
2019-05-06T08:35:10.024Z,50.52
2019-05-06T08:36:14.013Z,49.81
2019-05-06T08:37:08.892Z,48.85
2019-05-06T08:38:09.342Z,47.37
2019-05-06T08:39:09.782Z,47.51
2019-05-06T08:40:11.989Z,48.13
2019-05-06T08:41:11.874Z,46.05
2019-05-06T08:42:13.424Z,44.96
2019-05-06T08:43:13.058Z,42.93
2019-05-06T08:44:12.741Z,42.83
2019-05-06T08:45:12.944Z,43.96
2019-05-06T08:46:12.906Z,43.77
2019-05-06T08:47:13.443Z,45.36
2019-05-06T08:48:13.801Z,44.90
2019-05-06T08:49:14.242Z,44.24
2019-05-06T08:50:14.692Z,43.45
2019-05-06T08:51:15.140Z,41.90
2019-05-06T08:52:15.582Z,42.44
2019-05-06T08:53:16.040Z,40.20
2019-05-06T08:54:16.484Z,37.83
2019-05-06T08:55:16.933Z,37.72
2019-05-06T08:56:17.393Z,38.68
2019-05-06T08:57:17.833Z,42.25
2019-05-06T08:58:18.289Z,40.79
2019-05-06T08:59:18.738Z,41.29
2019-05-06T09:00:19.187Z,39.37
2019-05-06T09:01:19.639Z,40.20
2019-05-06T09:02:20.092Z,44.50
2019-05-06T09:03:22.332Z,45.48
2019-05-06T09:04:22.819Z,47.16
2019-05-06T09:05:22.257Z,48.28
2019-05-06T09:06:29.289Z,50.24
2019-05-06T09:07:23.933Z,51.70
2019-05-06T09:08:22.829Z,51.03
2019-05-06T09:09:23.231Z,50.95
2019-05-06T09:10:23.665Z,49.55
2019-05-06T09:11:25.885Z,48.97
2019-05-06T09:12:24.544Z,49.49
2019-05-06T09:13:24.987Z,50.00
2019-05-06T09:14:25.432Z,49.80
2019-05-06T09:15:25.865Z,50.74
2019-05-06T09:16:26.301Z,52.62
2019-05-06T09:17:26.741Z,51.98
2019-05-06T09:18:27.183Z,51.41
2019-05-06T09:19:27.615Z,51.46
2019-05-06T09:20:28.058Z,49.29
2019-05-06T09:21:28.494Z,48.04
2019-05-06T09:22:28.934Z,47.82
2019-05-06T09:23:29.389Z,48.11
2019-05-06T09:24:31.926Z,47.80
2019-05-06T09:25:32.229Z,48.21
2019-05-06T09:26:32.343Z,49.59
2019-05-06T09:27:32.762Z,50.26
2019-05-06T09:28:33.767Z,52.15
2019-05-06T09:29:32.613Z,52.91
2019-05-06T09:30:33.110Z,52.22
2019-05-06T09:31:32.866Z,52.69
2019-05-06T09:32:36.061Z,54.03
2019-05-06T09:33:33.747Z,53.51
2019-05-06T09:34:34.166Z,51.05
2019-05-06T09:35:34.609Z,49.49
2019-05-06T09:36:44.206Z,51.24
2019-05-06T09:37:35.500Z,48.78
2019-05-06T09:38:35.921Z,47.78
2019-05-06T09:39:36.365Z,46.17
2019-05-06T09:40:36.802Z,46.82
2019-05-06T09:41:37.259Z,47.58
2019-05-06T09:42:37.683Z,48.23
2019-05-06T09:43:38.123Z,48.04
2019-05-06T09:44:38.557Z,48.97
2019-05-06T09:45:39.010Z,49.64
2019-05-06T09:46:39.436Z,49.84
2019-05-06T09:47:42.237Z,49.45
2019-05-06T09:48:42.463Z,49.45
2019-05-06T09:49:42.609Z,48.16
2019-05-06T09:50:45.487Z,46.10
2019-05-06T09:51:42.501Z,42.23
2019-05-06T09:52:42.684Z,40.08
2019-05-06T09:53:43.235Z,38.87
2019-05-06T09:54:42.960Z,39.56
2019-05-06T09:55:43.400Z,37.66
2019-05-06T09:56:43.843Z,37.62
2019-05-06T09:57:44.287Z,38.10
2019-05-06T09:58:44.739Z,40.66
2019-05-06T09:59:45.175Z,40.89
2019-05-06T10:00:45.627Z,40.12
2019-05-06T10:01:46.065Z,38.18
2019-05-06T10:02:49.500Z,36.25
2019-05-06T10:03:46.958Z,35.36
2019-05-06T10:04:47.408Z,36.32
2019-05-06T10:05:47.855Z,36.22
2019-05-06T10:06:56.379Z,37.05
2019-05-06T10:07:48.747Z,37.99
2019-05-06T10:08:49.190Z,39.31
2019-05-06T10:09:49.637Z,40.35
2019-05-06T10:10:58.589Z,41.94
2019-05-06T10:11:52.479Z,42.90
2019-05-06T10:12:53.039Z,44.12
2019-05-06T10:13:52.430Z,44.59
2019-05-06T10:14:53.231Z,45.07
2019-05-06T10:15:52.281Z,45.72
2019-05-06T10:16:52.721Z,45.91
2019-05-06T10:17:53.165Z,45.81
2019-05-06T10:18:53.595Z,46.41
2019-05-06T10:19:54.041Z,45.57
2019-05-06T10:20:54.468Z,43.51
2019-05-06T10:21:54.918Z,41.80
2019-05-06T10:22:55.348Z,41.25
2019-05-06T10:23:55.803Z,39.45
2019-05-06T10:24:56.232Z,39.41
2019-05-06T10:25:56.682Z,36.18
2019-05-06T10:26:57.121Z,34.53
2019-05-06T10:27:57.597Z,34.41
2019-05-06T10:28:58.019Z,34.78
2019-05-06T10:29:58.463Z,34.63
2019-05-06T10:30:58.903Z,35.28
2019-05-06T10:31:59.353Z,37.72
2019-05-06T10:33:01.991Z,40.36
2019-05-06T10:34:02.871Z,42.71
2019-05-06T10:35:02.754Z,44.17
2019-05-06T10:36:02.561Z,44.53
2019-05-06T10:37:14.622Z,47.08
2019-05-06T10:38:02.939Z,48.39
2019-05-06T10:39:02.484Z,49.18
2019-05-06T10:40:03.410Z,49.28
2019-05-06T10:41:07.406Z,48.64
2019-05-06T10:42:03.753Z,48.18
2019-05-06T10:43:04.192Z,46.87
2019-05-06T10:44:04.628Z,45.81
2019-05-06T10:45:05.073Z,44.93
2019-05-06T10:46:05.501Z,42.19
2019-05-06T10:47:05.942Z,40.62
2019-05-06T10:48:06.383Z,37.79
2019-05-06T10:49:06.833Z,35.52
2019-05-06T10:50:07.264Z,33.50
2019-05-06T10:51:07.726Z,32.94
2019-05-06T10:52:08.154Z,32.51
2019-05-06T10:53:08.601Z,35.55
2019-05-06T10:54:09.051Z,36.97
2019-05-06T10:55:09.512Z,36.65
2019-05-06T10:56:09.955Z,37.41
2019-05-06T10:57:12.412Z,37.82
2019-05-06T10:58:12.826Z,38.62
2019-05-06T10:59:12.994Z,39.22
2019-05-06T11:00:12.252Z,39.14
2019-05-06T11:01:12.643Z,39.14
2019-05-06T11:02:13.002Z,38.47
2019-05-06T11:03:14.890Z,38.83
2019-05-06T11:04:13.507Z,39.20
2019-05-06T11:05:13.945Z,40.75
2019-05-06T11:06:14.392Z,39.23
2019-05-06T11:07:28.194Z,38.96
2019-05-06T11:08:15.278Z,38.78
2019-05-06T11:09:15.734Z,41.03
2019-05-06T11:10:23.729Z,43.26
2019-05-06T11:11:31.268Z,43.18
2019-05-06T11:12:17.052Z,42.53
2019-05-06T11:13:17.497Z,42.72
2019-05-06T11:14:17.940Z,42.53
2019-05-06T11:15:18.377Z,42.05
2019-05-06T11:16:18.878Z,43.35
2019-05-06T11:17:19.262Z,43.54
2019-05-06T11:18:19.720Z,44.02
2019-05-06T11:19:22.284Z,44.48
2019-05-06T11:20:20.599Z,44.09
2019-05-06T11:21:22.593Z,44.00
2019-05-06T11:22:24.629Z,44.09
2019-05-06T11:23:22.001Z,44.86
2019-05-06T11:24:23.130Z,44.65
2019-05-06T11:25:23.079Z,44.40
2019-05-06T11:26:23.802Z,44.31
2019-05-06T11:27:28.777Z,44.00
2019-05-06T11:28:24.088Z,44.93
2019-05-06T11:29:24.525Z,45.62
2019-05-06T11:30:24.964Z,44.09
2019-05-06T11:31:25.400Z,42.68
2019-05-06T11:32:25.835Z,42.30
2019-05-06T11:33:26.284Z,41.80
2019-05-06T11:34:26.708Z,42.37
2019-05-06T11:35:27.158Z,42.66
2019-05-06T11:36:27.591Z,43.30
2019-05-06T11:37:28.013Z,43.23
2019-05-06T11:38:28.454Z,43.50
2019-05-06T11:39:28.883Z,43.52
2019-05-06T11:40:29.327Z,43.26
2019-05-06T11:41:32.103Z,43.04
2019-05-06T11:42:33.447Z,43.80
2019-05-06T11:43:32.458Z,43.90
2019-05-06T11:44:32.327Z,44.09
2019-05-06T11:45:32.236Z,44.67
2019-05-06T11:46:32.295Z,44.48
2019-05-06T11:47:32.662Z,44.19
2019-05-06T11:48:32.982Z,44.84
2019-05-06T11:49:33.250Z,45.05
2019-05-06T11:50:33.684Z,44.76
2019-05-06T11:51:34.111Z,44.67
2019-05-06T11:52:34.818Z,45.29
2019-05-06T11:53:34.984Z,45.60
2019-05-06T11:54:35.419Z,45.24
2019-05-06T11:55:38.905Z,45.15
2019-05-06T11:56:47.778Z,45.01
2019-05-06T11:57:36.722Z,45.89
2019-05-06T11:58:37.158Z,46.17
2019-05-06T11:59:37.594Z,46.08
2019-05-06T12:00:38.031Z,45.77
2019-05-06T12:01:38.465Z,46.82
2019-05-06T12:02:41.394Z,47.08
2019-05-06T12:03:39.325Z,48.04
2019-05-06T12:04:41.832Z,47.97
2019-05-06T12:05:41.835Z,47.49
2019-05-06T12:06:42.314Z,46.92
2019-05-06T12:07:43.392Z,46.17
2019-05-06T12:08:43.150Z,46.75
2019-05-06T12:09:41.936Z,46.10
2019-05-06T12:10:42.553Z,45.24
2019-05-06T12:11:43.349Z,44.69
2019-05-06T12:12:43.242Z,44.55
2019-05-06T12:13:43.683Z,46.15
2019-05-06T12:14:44.113Z,46.06
2019-05-06T12:15:44.546Z,45.70
2019-05-06T12:16:44.981Z,44.74
2019-05-06T12:17:45.414Z,45.12
2019-05-06T12:18:45.853Z,44.48
2019-05-06T12:19:46.301Z,44.19
2019-05-06T12:20:46.722Z,43.23
2019-05-06T12:21:47.151Z,42.66
2019-05-06T12:22:47.592Z,43.43
2019-05-06T12:23:48.023Z,44.15
2019-05-06T12:24:48.465Z,45.39
2019-05-06T12:25:48.896Z,45.60
2019-05-06T12:26:49.415Z,45.31
2019-05-06T12:27:52.473Z,45.31
2019-05-06T12:28:52.909Z,44.57
2019-05-06T12:29:52.821Z,45.12
2019-05-06T12:30:52.437Z,45.31
2019-05-06T12:31:52.982Z,46.66
2019-05-06T12:32:52.666Z,47.01
2019-05-06T12:33:53.316Z,47.49
2019-05-06T12:34:52.802Z,47.52
2019-05-06T12:35:53.240Z,47.32
2019-05-06T12:36:53.673Z,47.49
2019-05-06T12:37:54.110Z,47.23
2019-05-06T12:38:54.540Z,46.92
2019-05-06T12:39:54.993Z,47.32
2019-05-06T12:40:55.411Z,46.17
2019-05-06T12:41:55.852Z,46.08
2019-05-06T12:42:56.286Z,46.84
2019-05-06T12:43:56.722Z,46.94
2019-05-06T12:44:57.147Z,46.77
2019-05-06T12:45:57.583Z,47.03
2019-05-06T12:47:00.018Z,46.48
2019-05-06T12:47:58.458Z,45.84
2019-05-06T12:48:58.891Z,45.34
2019-05-06T12:49:59.324Z,45.91
2019-05-06T12:50:59.756Z,45.91
2019-05-06T12:52:00.187Z,46.77
2019-05-06T12:53:00.625Z,46.87
2019-05-06T12:54:03.290Z,47.34
2019-05-06T12:55:17.528Z,47.34
2019-05-06T12:56:03.080Z,46.87
2019-05-06T12:57:03.316Z,46.01
2019-05-06T12:58:03.038Z,46.27
2019-05-06T12:59:03.240Z,47.13
2019-05-06T13:00:03.717Z,47.13
2019-05-06T13:01:04.260Z,46.84
2019-05-06T13:02:04.541Z,47.13
2019-05-06T13:03:04.981Z,46.84
2019-05-06T13:04:05.421Z,46.67
2019-05-06T13:05:05.850Z,45.79
2019-05-06T13:06:08.480Z,46.34
2019-05-06T13:07:06.733Z,46.94
2019-05-06T13:08:07.170Z,47.68
2019-05-06T13:09:07.627Z,47.61
2019-05-06T13:10:08.022Z,47.61
2019-05-06T13:11:08.460Z,47.61
2019-05-06T13:12:08.890Z,47.52
2019-05-06T13:13:09.480Z,47.16
2019-05-06T13:14:09.757Z,46.96
2019-05-06T13:15:12.805Z,46.56
2019-05-06T13:16:12.587Z,47.52
2019-05-06T13:17:11.065Z,48.28
2019-05-06T13:18:11.499Z,47.73
2019-05-06T13:19:12.261Z,46.89
2019-05-06T13:20:14.627Z,46.39
2019-05-06T13:21:12.867Z,46.87
2019-05-06T13:22:13.543Z,47.52
2019-05-06T13:23:20.777Z,46.67
2019-05-06T13:24:14.106Z,46.94
2019-05-06T13:25:14.542Z,47.06
2019-05-06T13:26:14.977Z,46.48
2019-05-06T13:27:15.410Z,46.77
2019-05-06T13:28:15.875Z,47.06
2019-05-06T13:29:16.280Z,47.13
2019-05-06T13:30:16.707Z,47.44
2019-05-06T13:31:21.427Z,47.06
2019-05-06T13:32:17.581Z,47.71
2019-05-06T13:33:18.125Z,47.73
2019-05-06T13:34:18.669Z,47.73
2019-05-06T13:35:18.876Z,46.87
2019-05-06T13:36:19.318Z,47.06
2019-05-06T13:37:22.700Z,46.87